首页
METAR-TAF:

METAR-TAF

机场 :

Pittsfield Municipal Airport

皮茨菲尔德, 马萨诸塞州, 美国

纬度: 42-25-38N, 经度: 073-17-21W, 海拔: 364米

当前天气观测

该预报发布于31分钟前的15:54 UTC
风速8节,风向西北
温度 0°C
湿度 59%
气压 1023 hPa
能見度: 16.1公里
阴天层高于3500英尺

METAR: KPSF 171554Z AUTO 32008KT 10SM OVC035 00/M07 A3020 RMK AO2 SLP237 T00001072

时间: 11:25 (16:25 UTC)

预报

该预报发布于1小时和31分钟前的14:54 UTC
预报有效从17日的 15点(UTC)到 18日的 12点(UTC)
风速9节,风向西
能見度: 10公里
散云层高于2500英尺
短暂存在
从 17日的 15点(UTC)到 17日的 17点(UTC)
风速12节,风向西,有时为18节阵风
多云层高于2500英尺
从 17日的 1800点(UTC)
风速10节,风向西转西北
能見度: 10公里
散云层高于3500英尺
从 17日的 2200点(UTC)
风速5节,风向西北
能見度: 10公里
散云层高于25000英尺
从 18日的 0300点(UTC)
风速节,风向
能見度: 10公里
多云层高于25000英尺
从 18日的 0800点(UTC)
风速3节,风向多变
能見度: 10公里
散云层高于10000英尺
阴天层高于25000英尺
从 18日的 1000点(UTC)
风速5节,风向东转东南
能見度: 10公里
多云层高于5000英尺
阴天层高于10000英尺

TAF: KPSF 171454Z 1715/1812 28009KT P6SM SCT025 TEMPO 1715/1717 28012G18KT BKN025 FM171800 30010KT P6SM SCT035 FM172200 31005KT P6SM SCT250 FM180300 00000KT P6SM BKN250 FM180800 VRB03KT P6SM SCT100 OVC250 FM181000 11005KT P6SM BKN050 OVC100

超过4000个机场的气象观测和天气预报(METAR&TAF报告)。

可查询的气象台以黄色和红色小点在地图上表示。

将鼠标移到小点上方,可查看气象台名称。

然后点击查看天气观测和预报。

如需切换地图:点击带黑十字的绿色按钮放大地图;点击带横线的绿色按钮缩小地图;或者点击绿色箭头查看邻近地区的地图。


METAR-TAF: